sensor_id;sensor_type;location;lat;lon;timestamp;temperature;humidity
240;DHT22;104;53.590;10.004;2023-04-06T00:06:01;1.20;91.00
240;DHT22;104;53.590;10.004;2023-04-06T00:08:29;1.20;90.60
240;DHT22;104;53.590;10.004;2023-04-06T00:35:34;0.80;89.90
240;DHT22;104;53.590;10.004;2023-04-06T00:38:01;0.80;89.60
240;DHT22;104;53.590;10.004;2023-04-06T00:40:28;0.80;89.60
240;DHT22;104;53.590;10.004;2023-04-06T00:45:24;0.80;89.10
240;DHT22;104;53.590;10.004;2023-04-06T00:57:42;0.60;89.90
240;DHT22;104;53.590;10.004;2023-04-06T01:00:10;0.60;90.20
240;DHT22;104;53.590;10.004;2023-04-06T01:02:38;0.60;90.20
240;DHT22;104;53.590;10.004;2023-04-06T01:07:34;0.60;89.80
240;DHT22;104;53.590;10.004;2023-04-06T01:10:02;0.50;89.80
240;DHT22;104;53.590;10.004;2023-04-06T01:12:29;0.50;90.10
240;DHT22;104;53.590;10.004;2023-04-06T01:14:56;0.40;90.30
240;DHT22;104;53.590;10.004;2023-04-06T01:17:23;0.40;90.30
240;DHT22;104;53.590;10.004;2023-04-06T01:19:50;0.50;90.00
240;DHT22;104;53.590;10.004;2023-04-06T01:34:37;0.30;90.70
240;DHT22;104;53.590;10.004;2023-04-06T01:56:48;0.20;90.20
240;DHT22;104;53.590;10.004;2023-04-06T02:06:39;0.40;89.50
240;DHT22;104;53.590;10.004;2023-04-06T02:09:06;0.40;89.30
240;DHT22;104;53.590;10.004;2023-04-06T02:16:30;0.40;89.50
240;DHT22;104;53.590;10.004;2023-04-06T02:18:57;0.40;90.20
240;DHT22;104;53.590;10.004;2023-04-06T02:21:24;0.30;90.60
240;DHT22;104;53.590;10.004;2023-04-06T02:26:19;0.30;91.00
240;DHT22;104;53.590;10.004;2023-04-06T02:28:46;0.30;91.10
240;DHT22;104;53.590;10.004;2023-04-06T02:31:16;0.40;91.10
240;DHT22;104;53.590;10.004;2023-04-06T02:38:37;0.20;91.30
240;DHT22;104;53.590;10.004;2023-04-06T02:41:05;0.20;91.50
240;DHT22;104;53.590;10.004;2023-04-06T02:43:32;0.20;91.70
240;DHT22;104;53.590;10.004;2023-04-06T02:46:00;0.20;91.90
240;DHT22;104;53.590;10.004;2023-04-06T02:48:29;0.20;92.00
240;DHT22;104;53.590;10.004;2023-04-06T02:50:56;0.10;92.00
240;DHT22;104;53.590;10.004;2023-04-06T02:53:23;0.10;92.00
240;DHT22;104;53.590;10.004;2023-04-06T03:03:12;0.10;91.30
240;DHT22;104;53.590;10.004;2023-04-06T03:08:08;-0.10;92.30
240;DHT22;104;53.590;10.004;2023-04-06T03:10:36;0.00;91.90
240;DHT22;104;53.590;10.004;2023-04-06T03:15:32;0.10;91.10
240;DHT22;104;53.590;10.004;2023-04-06T03:18:00;0.10;90.80
240;DHT22;104;53.590;10.004;2023-04-06T03:20:27;0.00;90.90
240;DHT22;104;53.590;10.004;2023-04-06T03:22:55;0.10;90.70
240;DHT22;104;53.590;10.004;2023-04-06T03:25:22;-0.10;91.00
240;DHT22;104;53.590;10.004;2023-04-06T03:27:49;0.00;91.20
240;DHT22;104;53.590;10.004;2023-04-06T03:30:17;0.00;91.50
240;DHT22;104;53.590;10.004;2023-04-06T03:32:44;-0.10;91.70
240;DHT22;104;53.590;10.004;2023-04-06T03:35:12;-0.10;92.00
240;DHT22;104;53.590;10.004;2023-04-06T03:37:39;-0.10;92.00
240;DHT22;104;53.590;10.004;2023-04-06T03:40:08;-0.10;91.80
240;DHT22;104;53.590;10.004;2023-04-06T03:42:35;0.00;91.70
240;DHT22;104;53.590;10.004;2023-04-06T03:45:03;-0.10;91.80
240;DHT22;104;53.590;10.004;2023-04-06T03:52:25;-0.10;92.10
240;DHT22;104;53.590;10.004;2023-04-06T03:54:52;-0.10;92.30
240;DHT22;104;53.590;10.004;2023-04-06T03:59:48;-0.10;92.70
240;DHT22;104;53.590;10.004;2023-04-06T04:02:16;0.00;93.00
240;DHT22;104;53.590;10.004;2023-04-06T04:04:43;0.00;93.00
240;DHT22;104;53.590;10.004;2023-04-06T04:07:10;0.10;93.20
240;DHT22;104;53.590;10.004;2023-04-06T04:09:37;0.10;93.10
240;DHT22;104;53.590;10.004;2023-04-06T04:12:04;0.00;93.40
240;DHT22;104;53.590;10.004;2023-04-06T04:14:34;0.10;93.30
240;DHT22;104;53.590;10.004;2023-04-06T04:17:01;0.10;93.70
240;DHT22;104;53.590;10.004;2023-04-06T04:19:28;0.10;94.00
240;DHT22;104;53.590;10.004;2023-04-06T04:21:56;0.40;96.10
240;DHT22;104;53.590;10.004;2023-04-06T04:24:23;0.50;94.80
240;DHT22;104;53.590;10.004;2023-04-06T04:26:50;0.50;94.00
240;DHT22;104;53.590;10.004;2023-04-06T04:29:17;0.50;93.90
240;DHT22;104;53.590;10.004;2023-04-06T04:31:48;0.60;93.60
240;DHT22;104;53.590;10.004;2023-04-06T04:34:15;0.50;93.50
240;DHT22;104;53.590;10.004;2023-04-06T04:36:42;0.50;93.50
240;DHT22;104;53.590;10.004;2023-04-06T04:39:10;0.40;93.50
240;DHT22;104;53.590;10.004;2023-04-06T04:41:37;0.40;93.50
240;DHT22;104;53.590;10.004;2023-04-06T04:46:34;0.20;94.10
240;DHT22;104;53.590;10.004;2023-04-06T05:08:45;0.00;96.10
240;DHT22;104;53.590;10.004;2023-04-06T05:35:48;0.10;95.50
240;DHT22;104;53.590;10.004;2023-04-06T05:38:15;0.10;95.80
240;DHT22;104;53.590;10.004;2023-04-06T05:43:11;0.10;96.00
240;DHT22;104;53.590;10.004;2023-04-06T05:50:33;0.60;96.10
240;DHT22;104;53.590;10.004;2023-04-06T05:53:00;0.90;96.10
240;DHT22;104;53.590;10.004;2023-04-06T06:02:51;2.00;92.20
240;DHT22;104;53.590;10.004;2023-04-06T06:07:46;2.80;88.20
240;DHT22;104;53.590;10.004;2023-04-06T06:10:14;3.10;86.20
240;DHT22;104;53.590;10.004;2023-04-06T06:12:41;3.20;84.50
240;DHT22;104;53.590;10.004;2023-04-06T06:15:10;3.30;83.60
240;DHT22;104;53.590;10.004;2023-04-06T06:17:38;3.50;83.00
240;DHT22;104;53.590;10.004;2023-04-06T06:20:07;3.50;83.00
240;DHT22;104;53.590;10.004;2023-04-06T06:22:34;3.90;81.00
240;DHT22;104;53.590;10.004;2023-04-06T06:25:01;4.10;80.30
240;DHT22;104;53.590;10.004;2023-04-06T06:29:55;4.20;78.80
240;DHT22;104;53.590;10.004;2023-04-06T06:32:24;4.30;78.50
240;DHT22;104;53.590;10.004;2023-04-06T06:34:51;4.40;77.80
240;DHT22;104;53.590;10.004;2023-04-06T06:37:19;4.40;77.70
240;DHT22;104;53.590;10.004;2023-04-06T06:39:46;4.50;77.80
240;DHT22;104;53.590;10.004;2023-04-06T06:42:13;4.50;77.80
240;DHT22;104;53.590;10.004;2023-04-06T06:44:40;4.60;77.00
240;DHT22;104;53.590;10.004;2023-04-06T06:47:07;4.70;77.00
240;DHT22;104;53.590;10.004;2023-04-06T06:49:36;4.80;76.40
240;DHT22;104;53.590;10.004;2023-04-06T06:52:03;4.80;75.70
240;DHT22;104;53.590;10.004;2023-04-06T06:56:58;5.00;74.80
240;DHT22;104;53.590;10.004;2023-04-06T06:59:25;5.00;74.20
240;DHT22;104;53.590;10.004;2023-04-06T07:01:52;4.90;74.10
240;DHT22;104;53.590;10.004;2023-04-06T07:06:48;4.90;72.70
240;DHT22;104;53.590;10.004;2023-04-06T07:09:16;4.90;72.30
240;DHT22;104;53.590;10.004;2023-04-06T07:14:10;4.80;72.20
240;DHT22;104;53.590;10.004;2023-04-06T07:41:14;4.50;72.90
240;DHT22;104;53.590;10.004;2023-04-06T07:51:04;4.60;72.80
240;DHT22;104;53.590;10.004;2023-04-06T07:53:32;4.60;72.50
240;DHT22;104;53.590;10.004;2023-04-06T07:55:59;4.70;72.30
240;DHT22;104;53.590;10.004;2023-04-06T07:58:28;5.00;70.60
240;DHT22;104;53.590;10.004;2023-04-06T08:00:55;5.00;70.00
240;DHT22;104;53.590;10.004;2023-04-06T08:03:23;5.10;71.40
240;DHT22;104;53.590;10.004;2023-04-06T08:05:51;5.10;71.50
240;DHT22;104;53.590;10.004;2023-04-06T08:08:19;5.30;71.00
240;DHT22;104;53.590;10.004;2023-04-06T08:18:11;5.80;70.10
240;DHT22;104;53.590;10.004;2023-04-06T08:25:35;6.10;69.30
240;DHT22;104;53.590;10.004;2023-04-06T08:42:53;6.90;66.90
240;DHT22;104;53.590;10.004;2023-04-06T08:45:21;6.90;67.30
240;DHT22;104;53.590;10.004;2023-04-06T08:47:50;6.90;67.40
240;DHT22;104;53.590;10.004;2023-04-06T08:52:47;7.20;65.80
240;DHT22;104;53.590;10.004;2023-04-06T08:57:42;7.40;64.40
240;DHT22;104;53.590;10.004;2023-04-06T09:00:11;7.50;63.70
240;DHT22;104;53.590;10.004;2023-04-06T09:02:39;7.70;63.40
240;DHT22;104;53.590;10.004;2023-04-06T09:05:08;7.70;63.20
240;DHT22;104;53.590;10.004;2023-04-06T09:07:37;7.80;62.90
240;DHT22;104;53.590;10.004;2023-04-06T09:10:06;8.00;61.30
240;DHT22;104;53.590;10.004;2023-04-06T09:12:33;8.00;60.40
240;DHT22;104;53.590;10.004;2023-04-06T09:17:30;8.20;59.50
240;DHT22;104;53.590;10.004;2023-04-06T09:19:59;8.20;59.30
240;DHT22;104;53.590;10.004;2023-04-06T09:25:05;8.50;58.90
240;DHT22;104;53.590;10.004;2023-04-06T09:27:34;8.60;58.40
240;DHT22;104;53.590;10.004;2023-04-06T09:30:04;8.60;57.90
240;DHT22;104;53.590;10.004;2023-04-06T09:32:31;8.70;57.90
240;DHT22;104;53.590;10.004;2023-04-06T09:35:06;8.90;56.10
240;DHT22;104;53.590;10.004;2023-04-06T09:37:33;9.00;56.10
240;DHT22;104;53.590;10.004;2023-04-06T09:40:07;9.00;56.00
240;DHT22;104;53.590;10.004;2023-04-06T09:42:34;9.30;56.20
240;DHT22;104;53.590;10.004;2023-04-06T09:45:01;9.40;53.90
240;DHT22;104;53.590;10.004;2023-04-06T09:47:30;9.50;53.10
240;DHT22;104;53.590;10.004;2023-04-06T09:49:59;9.60;53.30
240;DHT22;104;53.590;10.004;2023-04-06T09:52:30;9.60;53.10
240;DHT22;104;53.590;10.004;2023-04-06T09:55:01;9.50;52.00
240;DHT22;104;53.590;10.004;2023-04-06T09:57:32;9.60;51.40
240;DHT22;104;53.590;10.004;2023-04-06T10:00:05;9.60;51.50
240;DHT22;104;53.590;10.004;2023-04-06T10:02:42;9.70;52.10
240;DHT22;104;53.590;10.004;2023-04-06T10:05:19;9.80;52.20
240;DHT22;104;53.590;10.004;2023-04-06T10:07:48;9.80;52.20
240;DHT22;104;53.590;10.004;2023-04-06T10:10:17;10.00;49.40
240;DHT22;104;53.590;10.004;2023-04-06T10:12:47;10.10;49.10
240;DHT22;104;53.590;10.004;2023-04-06T10:15:15;10.20;49.60
240;DHT22;104;53.590;10.004;2023-04-06T10:17:42;10.20;49.60
240;DHT22;104;53.590;10.004;2023-04-06T10:20:14;10.40;49.80
240;DHT22;104;53.590;10.004;2023-04-06T10:22:45;10.40;49.80
240;DHT22;104;53.590;10.004;2023-04-06T10:25:26;10.30;48.40
240;DHT22;104;53.590;10.004;2023-04-06T10:28:01;10.30;48.60
240;DHT22;104;53.590;10.004;2023-04-06T10:30:28;10.10;49.10
240;DHT22;104;53.590;10.004;2023-04-06T10:32:56;10.20;48.90
240;DHT22;104;53.590;10.004;2023-04-06T10:35:36;10.50;48.80
240;DHT22;104;53.590;10.004;2023-04-06T10:38:04;10.70;47.80
240;DHT22;104;53.590;10.004;2023-04-06T10:40:31;11.00;47.50
240;DHT22;104;53.590;10.004;2023-04-06T10:43:09;11.00;47.50
240;DHT22;104;53.590;10.004;2023-04-06T10:45:36;11.00;47.60
240;DHT22;104;53.590;10.004;2023-04-06T10:48:13;11.00;47.60
240;DHT22;104;53.590;10.004;2023-04-06T10:50:42;11.00;46.90
240;DHT22;104;53.590;10.004;2023-04-06T10:53:10;11.10;47.50
240;DHT22;104;53.590;10.004;2023-04-06T10:55:39;11.30;47.40
240;DHT22;104;53.590;10.004;2023-04-06T10:58:08;11.40;46.70
240;DHT22;104;53.590;10.004;2023-04-06T11:00:35;11.40;46.30
240;DHT22;104;53.590;10.004;2023-04-06T11:03:10;11.40;46.70
240;DHT22;104;53.590;10.004;2023-04-06T11:08:05;11.40;46.50
240;DHT22;104;53.590;10.004;2023-04-06T11:10:32;11.40;46.60
240;DHT22;104;53.590;10.004;2023-04-06T11:12:59;11.40;47.00
240;DHT22;104;53.590;10.004;2023-04-06T11:15:34;11.30;46.60
240;DHT22;104;53.590;10.004;2023-04-06T11:18:03;11.20;47.30
240;DHT22;104;53.590;10.004;2023-04-06T11:20:30;11.20;47.20
240;DHT22;104;53.590;10.004;2023-04-06T11:22:58;11.20;47.00
240;DHT22;104;53.590;10.004;2023-04-06T11:25:25;11.60;46.00
240;DHT22;104;53.590;10.004;2023-04-06T11:27:53;11.70;45.30
240;DHT22;104;53.590;10.004;2023-04-06T11:32:49;11.60;46.00
240;DHT22;104;53.590;10.004;2023-04-06T11:35:20;11.60;46.30
240;DHT22;104;53.590;10.004;2023-04-06T11:37:49;11.60;46.30
240;DHT22;104;53.590;10.004;2023-04-06T11:40:20;11.70;46.20
240;DHT22;104;53.590;10.004;2023-04-06T11:47:57;12.40;44.20
240;DHT22;104;53.590;10.004;2023-04-06T11:52:59;12.30;44.30
240;DHT22;104;53.590;10.004;2023-04-06T11:55:27;11.70;45.20
240;DHT22;104;53.590;10.004;2023-04-06T11:57:54;11.70;45.30
240;DHT22;104;53.590;10.004;2023-04-06T12:00:21;11.90;45.00
240;DHT22;104;53.590;10.004;2023-04-06T12:02:49;12.30;44.10
240;DHT22;104;53.590;10.004;2023-04-06T12:15:08;12.80;44.40
240;DHT22;104;53.590;10.004;2023-04-06T12:20:02;12.90;43.90
240;DHT22;104;53.590;10.004;2023-04-06T12:24:58;13.00;43.70
240;DHT22;104;53.590;10.004;2023-04-06T12:49:36;13.30;42.90
240;DHT22;104;53.590;10.004;2023-04-06T13:24:11;13.60;41.90
240;DHT22;104;53.590;10.004;2023-04-06T13:34:02;13.70;41.80
240;DHT22;104;53.590;10.004;2023-04-06T13:41:25;13.90;41.50
240;DHT22;104;53.590;10.004;2023-04-06T13:43:53;14.00;40.90
240;DHT22;104;53.590;10.004;2023-04-06T13:51:18;14.00;41.20
240;DHT22;104;53.590;10.004;2023-04-06T14:01:07;13.80;41.40
240;DHT22;104;53.590;10.004;2023-04-06T14:03:35;13.50;41.30
240;DHT22;104;53.590;10.004;2023-04-06T14:06:11;13.50;42.00
240;DHT22;104;53.590;10.004;2023-04-06T14:08:38;13.60;42.00
240;DHT22;104;53.590;10.004;2023-04-06T14:11:06;13.80;41.30
240;DHT22;104;53.590;10.004;2023-04-06T14:13:34;13.80;41.40
240;DHT22;104;53.590;10.004;2023-04-06T14:16:01;13.80;41.40
240;DHT22;104;53.590;10.004;2023-04-06T14:18:28;13.80;41.60
240;DHT22;104;53.590;10.004;2023-04-06T14:20:57;13.80;41.30
240;DHT22;104;53.590;10.004;2023-04-06T14:30:56;13.50;41.40
240;DHT22;104;53.590;10.004;2023-04-06T14:48:09;13.80;41.10
240;DHT22;104;53.590;10.004;2023-04-06T15:02:56;13.90;40.50
240;DHT22;104;53.590;10.004;2023-04-06T15:10:18;13.70;40.30
240;DHT22;104;53.590;10.004;2023-04-06T15:25:04;13.70;41.30
240;DHT22;104;53.590;10.004;2023-04-06T16:46:37;11.50;45.50
240;DHT22;104;53.590;10.004;2023-04-06T16:51:33;11.40;45.90
240;DHT22;104;53.590;10.004;2023-04-06T16:54:01;11.30;46.00
240;DHT22;104;53.590;10.004;2023-04-06T16:56:28;11.20;46.10
240;DHT22;104;53.590;10.004;2023-04-06T17:01:24;10.90;47.20
240;DHT22;104;53.590;10.004;2023-04-06T17:03:53;10.80;47.50
240;DHT22;104;53.590;10.004;2023-04-06T17:06:21;10.60;47.80
240;DHT22;104;53.590;10.004;2023-04-06T17:08:48;10.60;48.10
240;DHT22;104;53.590;10.004;2023-04-06T17:13:43;10.30;49.10
240;DHT22;104;53.590;10.004;2023-04-06T17:16:11;10.30;49.40
240;DHT22;104;53.590;10.004;2023-04-06T17:21:07;10.20;49.90
240;DHT22;104;53.590;10.004;2023-04-06T17:23:35;9.90;50.50
240;DHT22;104;53.590;10.004;2023-04-06T17:26:03;9.90;50.50
240;DHT22;104;53.590;10.004;2023-04-06T17:28:30;9.80;50.60
240;DHT22;104;53.590;10.004;2023-04-06T17:30:58;9.70;51.00
240;DHT22;104;53.590;10.004;2023-04-06T17:33:26;9.70;51.40
240;DHT22;104;53.590;10.004;2023-04-06T17:35:54;9.50;52.00
240;DHT22;104;53.590;10.004;2023-04-06T17:45:47;9.10;53.50
240;DHT22;104;53.590;10.004;2023-04-06T17:48:15;9.00;54.10
240;DHT22;104;53.590;10.004;2023-04-06T17:50:42;9.00;54.30
240;DHT22;104;53.590;10.004;2023-04-06T17:53:10;9.00;54.40
240;DHT22;104;53.590;10.004;2023-04-06T17:55:38;8.90;54.80
240;DHT22;104;53.590;10.004;2023-04-06T18:03:00;8.70;55.10
240;DHT22;104;53.590;10.004;2023-04-06T18:05:27;8.60;55.70
240;DHT22;104;53.590;10.004;2023-04-06T18:10:22;8.50;56.10
240;DHT22;104;53.590;10.004;2023-04-06T18:12:50;8.40;56.80
240;DHT22;104;53.590;10.004;2023-04-06T18:17:45;8.30;57.10
240;DHT22;104;53.590;10.004;2023-04-06T18:25:07;8.10;58.20
240;DHT22;104;53.590;10.004;2023-04-06T18:27:34;8.00;58.50
240;DHT22;104;53.590;10.004;2023-04-06T18:30:04;8.00;58.70
240;DHT22;104;53.590;10.004;2023-04-06T18:32:31;8.00;58.80
240;DHT22;104;53.590;10.004;2023-04-06T18:37:25;7.80;59.90
240;DHT22;104;53.590;10.004;2023-04-06T18:39:52;7.70;60.10
240;DHT22;104;53.590;10.004;2023-04-06T18:42:19;7.70;60.30
240;DHT22;104;53.590;10.004;2023-04-06T18:44:47;7.70;60.40
240;DHT22;104;53.590;10.004;2023-04-06T18:59:31;7.40;61.70
240;DHT22;104;53.590;10.004;2023-04-06T19:04:28;7.30;62.40
240;DHT22;104;53.590;10.004;2023-04-06T19:06:55;7.20;62.50
240;DHT22;104;53.590;10.004;2023-04-06T19:11:49;7.40;62.70
240;DHT22;104;53.590;10.004;2023-04-06T19:14:16;7.40;62.40
240;DHT22;104;53.590;10.004;2023-04-06T19:19:18;7.20;62.90
240;DHT22;104;53.590;10.004;2023-04-06T19:36:31;6.90;71.60
240;DHT22;104;53.590;10.004;2023-04-06T19:43:54;6.70;73.70
240;DHT22;104;53.590;10.004;2023-04-06T19:46:21;6.80;73.50
240;DHT22;104;53.590;10.004;2023-04-06T19:48:48;6.80;73.50
240;DHT22;104;53.590;10.004;2023-04-06T19:56:11;6.70;75.00
240;DHT22;104;53.590;10.004;2023-04-06T19:58:38;6.70;75.00
240;DHT22;104;53.590;10.004;2023-04-06T20:01:05;6.80;75.20
240;DHT22;104;53.590;10.004;2023-04-06T20:03:32;6.80;75.10
240;DHT22;104;53.590;10.004;2023-04-06T20:06:00;6.50;76.20
240;DHT22;104;53.590;10.004;2023-04-06T20:08:27;6.50;76.30
240;DHT22;104;53.590;10.004;2023-04-06T20:10:59;6.30;75.40
240;DHT22;104;53.590;10.004;2023-04-06T20:13:28;6.30;75.40
240;DHT22;104;53.590;10.004;2023-04-06T20:15:55;6.10;75.50
240;DHT22;104;53.590;10.004;2023-04-06T20:20:51;6.10;76.30
240;DHT22;104;53.590;10.004;2023-04-06T20:23:19;6.10;78.10
240;DHT22;104;53.590;10.004;2023-04-06T20:25:46;6.10;78.60
240;DHT22;104;53.590;10.004;2023-04-06T20:33:09;5.90;79.40
240;DHT22;104;53.590;10.004;2023-04-06T20:47:54;5.50;79.40
240;DHT22;104;53.590;10.004;2023-04-06T20:50:21;5.30;79.80
240;DHT22;104;53.590;10.004;2023-04-06T20:52:48;5.30;80.00
240;DHT22;104;53.590;10.004;2023-04-06T20:55:15;5.20;80.10
240;DHT22;104;53.590;10.004;2023-04-06T21:00:10;5.20;80.30
240;DHT22;104;53.590;10.004;2023-04-06T21:02:37;5.20;80.30
240;DHT22;104;53.590;10.004;2023-04-06T21:05:08;5.10;80.80
240;DHT22;104;53.590;10.004;2023-04-06T21:07:36;5.00;81.50
240;DHT22;104;53.590;10.004;2023-04-06T21:10:03;4.90;82.20
240;DHT22;104;53.590;10.004;2023-04-06T21:14:57;5.00;82.70
240;DHT22;104;53.590;10.004;2023-04-06T21:37:33;4.60;83.50
240;DHT22;104;53.590;10.004;2023-04-06T21:42:28;4.60;83.90
240;DHT22;104;53.590;10.004;2023-04-06T21:47:22;4.50;84.60
240;DHT22;104;53.590;10.004;2023-04-06T21:49:52;4.40;85.30
240;DHT22;104;53.590;10.004;2023-04-06T21:54:48;4.40;85.80
240;DHT22;104;53.590;10.004;2023-04-06T22:02:09;4.30;86.30
240;DHT22;104;53.590;10.004;2023-04-06T22:04:36;4.30;86.10
240;DHT22;104;53.590;10.004;2023-04-06T22:09:31;4.40;84.90
240;DHT22;104;53.590;10.004;2023-04-06T22:26:47;3.80;87.70
240;DHT22;104;53.590;10.004;2023-04-06T22:29:15;3.80;87.90
240;DHT22;104;53.590;10.004;2023-04-06T22:44:20;3.90;88.20
240;DHT22;104;53.590;10.004;2023-04-06T22:46:47;3.80;88.80
240;DHT22;104;53.590;10.004;2023-04-06T22:49:15;3.80;88.80
240;DHT22;104;53.590;10.004;2023-04-06T22:51:42;3.70;89.10
240;DHT22;104;53.590;10.004;2023-04-06T22:54:10;3.60;89.50
240;DHT22;104;53.590;10.004;2023-04-06T22:56:39;3.60;89.60
240;DHT22;104;53.590;10.004;2023-04-06T22:59:06;3.50;89.90
240;DHT22;104;53.590;10.004;2023-04-06T23:01:34;3.50;89.70
240;DHT22;104;53.590;10.004;2023-04-06T23:04:02;3.40;89.90
240;DHT22;104;53.590;10.004;2023-04-06T23:08:56;3.40;89.80
240;DHT22;104;53.590;10.004;2023-04-06T23:11:23;3.40;89.90
240;DHT22;104;53.590;10.004;2023-04-06T23:13:50;3.40;90.10
240;DHT22;104;53.590;10.004;2023-04-06T23:18:45;3.40;90.20
240;DHT22;104;53.590;10.004;2023-04-06T23:21:12;3.20;90.60
240;DHT22;104;53.590;10.004;2023-04-06T23:33:28;3.20;91.30
240;DHT22;104;53.590;10.004;2023-04-06T23:55:36;2.90;90.80
240;DHT22;104;53.590;10.004;2023-04-06T23:58:03;2.90;90.80
